Time;durP1;ratioP1;P1;durP2;ratioP2;P2;SDS_P1;SDS_P2;PMS_P1;PMS_P2;Temp;Humidity;BMP_temperature;BMP_pressure;BME280_temperature;BME280_humidity;BME280_pressure;Samples;Min_cycle;Max_cycle;Signal;HPM_P1;HPM_P2
2022/04/21 00:00:19;;;;;;;2.33;2.10;;;9.00;99.90;;;;;;5061337;28;20051;-80
2022/04/21 00:02:45;;;;;;;8.93;2.72;;;9.00;99.90;;;;;;5060090;28;20383;-79
2022/04/21 00:05:12;;;;;;;4.10;2.58;;;8.90;99.90;;;;;;5071432;28;20049;-79
2022/04/21 00:07:38;;;;;;;3.63;3.33;;;8.90;99.90;;;;;;5061050;28;20097;-79
2022/04/21 00:10:06;;;;;;;4.38;2.75;;;8.90;99.90;;;;;;5061090;28;20127;-80
2022/04/21 00:12:33;;;;;;;3.60;3.30;;;8.90;99.90;;;;;;5042832;28;20102;-79
2022/04/21 00:14:59;;;;;;;5.57;3.33;;;8.90;99.90;;;;;;5061704;28;20052;-79
2022/04/21 00:17:24;;;;;;;6.47;3.67;;;8.90;99.90;;;;;;5051831;28;20093;-79
2022/04/21 00:19:50;;;;;;;6.38;3.40;;;8.90;99.90;;;;;;5026774;28;20048;-79
2022/04/21 00:24:59;;;;;;;5.25;3.50;;;8.90;99.90;;;;;;5043298;28;20109;-79
2022/04/21 00:27:25;;;;;;;3.63;3.28;;;8.90;99.90;;;;;;5060956;28;20036;-79
2022/04/21 00:29:51;;;;;;;5.32;4.13;;;8.80;99.90;;;;;;5058245;28;20052;-79
2022/04/21 00:32:16;;;;;;;3.42;3.13;;;8.80;99.90;;;;;;5044258;28;20127;-79
2022/04/21 00:34:42;;;;;;;3.97;3.55;;;8.80;99.90;;;;;;5060910;28;20153;-79
2022/04/21 00:37:08;;;;;;;4.57;3.75;;;8.80;99.90;;;;;;5060975;28;20089;-79
2022/04/21 00:39:33;;;;;;;6.68;4.30;;;8.80;99.90;;;;;;5064579;28;20048;-78
2022/04/21 00:42:00;;;;;;;3.88;3.58;;;8.80;99.90;;;;;;5065080;28;20110;-79
2022/04/21 00:44:27;;;;;;;6.28;3.45;;;8.80;99.90;;;;;;5046809;28;20085;-80
2022/04/21 00:46:55;;;;;;;8.93;4.30;;;8.80;99.90;;;;;;5064519;28;20044;-78
2022/04/21 00:49:21;;;;;;;4.82;3.92;;;8.70;99.90;;;;;;5061656;28;20063;-79
2022/04/21 00:51:48;;;;;;;5.88;4.00;;;8.70;99.90;;;;;;5046730;28;20051;-79
2022/04/21 00:54:14;;;;;;;3.35;2.55;;;8.70;99.90;;;;;;5046174;28;20040;-79
2022/04/21 00:56:42;;;;;;;5.13;4.45;;;8.70;99.90;;;;;;5045528;28;20443;-79
2022/04/21 00:59:10;;;;;;;4.53;3.97;;;8.70;99.90;;;;;;5064449;28;20410;-79
2022/04/21 01:04:22;;;;;;;5.43;4.90;;;8.70;99.90;;;;;;5063186;28;20147;-79
2022/04/21 01:06:47;;;;;;;9.52;6.00;;;8.70;99.90;;;;;;5046238;28;20036;-79
2022/04/21 01:09:13;;;;;;;5.65;5.10;;;8.70;99.90;;;;;;5063746;28;20036;-79
2022/04/21 01:11:39;;;;;;;8.02;4.88;;;8.70;99.90;;;;;;5063917;28;20086;-78
2022/04/21 01:14:04;;;;;;;11.07;4.78;;;8.70;99.90;;;;;;5072128;28;20097;-79
2022/04/21 01:16:30;;;;;;;5.05;4.15;;;8.70;99.90;;;;;;5066394;28;20040;-79
2022/04/21 01:18:56;;;;;;;8.52;5.72;;;8.60;99.90;;;;;;5064837;28;20046;-79
2022/04/21 01:21:22;;;;;;;8.73;5.35;;;8.70;99.90;;;;;;5083928;28;20044;-78
2022/04/21 01:23:47;;;;;;;5.75;4.80;;;8.60;99.90;;;;;;5066291;28;20048;-79
2022/04/21 01:26:16;;;;;;;4.95;3.50;;;8.60;99.90;;;;;;5081335;28;20082;-79
2022/04/21 01:28:42;;;;;;;11.13;6.05;;;8.60;99.90;;;;;;5063360;28;20097;-79
2022/04/21 01:31:08;;;;;;;5.60;4.43;;;8.60;99.90;;;;;;5063190;28;20052;-79
2022/04/21 01:33:33;;;;;;;5.45;4.53;;;8.60;99.90;;;;;;5082440;28;20062;-79
2022/04/21 01:35:59;;;;;;;4.38;3.90;;;8.60;99.90;;;;;;5066200;28;20032;-80
2022/04/21 01:41:11;;;;;;;5.45;4.35;;;8.60;99.90;;;;;;5044676;28;20048;-79
2022/04/21 01:43:43;;;;;;;6.50;4.40;;;8.50;99.90;;;;;;5044715;28;20037;-79
2022/04/21 01:46:12;;;;;;;5.85;4.97;;;8.60;99.90;;;;;;5045417;28;20041;-79
2022/04/21 01:48:37;;;;;;;5.80;5.20;;;8.50;99.90;;;;;;5061911;28;20036;-79
2022/04/21 01:51:03;;;;;;;5.38;4.80;;;8.50;99.90;;;;;;5062780;28;20135;-79
2022/04/21 01:53:29;;;;;;;10.63;5.30;;;8.50;99.90;;;;;;5064246;28;20051;-79
2022/04/21 01:55:54;;;;;;;10.88;5.65;;;8.50;99.90;;;;;;5063369;28;20045;-79
2022/04/21 01:58:20;;;;;;;11.70;5.20;;;8.50;99.90;;;;;;5044876;28;20269;-79
2022/04/21 02:00:46;;;;;;;5.13;4.63;;;8.50;99.90;;;;;;5045283;28;20534;-79
2022/04/21 02:03:12;;;;;;;11.50;5.18;;;8.40;99.90;;;;;;5043748;28;20525;-79
2022/04/21 02:05:37;;;;;;;6.13;5.32;;;8.40;99.90;;;;;;5063070;28;20040;-79
2022/04/21 02:08:04;;;;;;;5.28;3.47;;;8.40;99.90;;;;;;5044992;28;20497;-79
2022/04/21 02:10:30;;;;;;;5.32;4.82;;;8.40;99.90;;;;;;5063437;28;20046;-79
2022/04/21 02:12:57;;;;;;;5.78;4.72;;;8.40;99.90;;;;;;5063993;28;20041;-79
2022/04/21 02:15:23;;;;;;;4.22;3.78;;;8.40;99.90;;;;;;5062330;28;20045;-79
2022/04/21 02:17:50;;;;;;;10.27;6.82;;;8.40;99.90;;;;;;5062118;28;20119;-79
2022/04/21 02:20:17;;;;;;;7.43;5.50;;;8.40;99.90;;;;;;5044978;28;20552;-79
2022/04/21 02:22:43;;;;;;;8.07;6.45;;;8.30;99.90;;;;;;5044872;28;20044;-79
2022/04/21 02:25:10;;;;;;;12.07;6.32;;;8.30;99.90;;;;;;5044532;28;20121;-79
2022/04/21 02:27:37;;;;;;;6.15;5.55;;;8.30;99.90;;;;;;5045196;28;20091;-79
2022/04/21 02:30:04;;;;;;;4.95;4.38;;;8.30;99.90;;;;;;5062193;28;20047;-79
2022/04/21 02:32:30;;;;;;;7.85;5.03;;;8.30;99.90;;;;;;5062219;28;20048;-79
2022/04/21 02:34:56;;;;;;;5.80;5.32;;;8.30;99.90;;;;;;5063430;28;20383;-79
2022/04/21 02:37:22;;;;;;;5.65;5.15;;;8.30;99.90;;;;;;5064635;28;20068;-79
2022/04/21 02:39:49;;;;;;;8.10;5.82;;;8.30;99.90;;;;;;5064446;28;20040;-79
2022/04/21 02:42:14;;;;;;;9.40;6.72;;;8.30;99.90;;;;;;5064197;28;20052;-80
2022/04/21 02:44:40;;;;;;;8.80;6.40;;;8.30;99.90;;;;;;5082141;28;20501;-80
2022/04/21 02:47:07;;;;;;;6.40;5.80;;;8.30;99.90;;;;;;5062952;28;20441;-79
2022/04/21 02:49:35;;;;;;;8.13;5.72;;;8.20;99.90;;;;;;5044128;28;20084;-78
2022/04/21 02:52:03;;;;;;;8.77;6.40;;;8.20;99.90;;;;;;5062892;28;20037;-74
2022/04/21 02:57:21;;;;;;;6.15;4.95;;;8.20;99.90;;;;;;5053940;28;20044;-78
2022/04/21 02:59:52;;;;;;;7.03;5.43;;;8.20;99.90;;;;;;5064722;28;20052;-79
2022/04/21 03:02:19;;;;;;;8.40;5.82;;;8.20;99.90;;;;;;5060839;28;20050;-78
2022/04/21 03:04:45;;;;;;;23.10;5.32;;;8.20;99.90;;;;;;5061687;28;20075;-78
2022/04/21 03:07:11;;;;;;;6.60;5.13;;;8.20;99.90;;;;;;5062023;28;20032;-78
2022/04/21 03:09:37;;;;;;;10.15;6.10;;;8.20;99.90;;;;;;5062250;28;20041;-78
2022/04/21 03:12:07;;;;;;;9.10;4.85;;;8.20;99.90;;;;;;5062007;28;20076;-78
2022/04/21 03:14:35;;;;;;;6.78;5.70;;;8.10;99.90;;;;;;5061873;28;20040;-78
2022/04/21 03:17:01;;;;;;;6.85;4.20;;;8.10;99.90;;;;;;5060768;28;20071;-78
2022/04/21 03:19:26;;;;;;;10.68;8.10;;;8.10;99.90;;;;;;5062241;28;20049;-78
2022/04/21 03:24:37;;;;;;;12.20;6.45;;;8.10;99.90;;;;;;5080903;28;20658;-79
2022/04/21 03:27:04;;;;;;;19.15;6.95;;;8.00;99.90;;;;;;5082239;28;20413;-77
2022/04/21 03:29:29;;;;;;;10.98;5.93;;;8.00;99.90;;;;;;5082015;28;20477;-78
2022/04/21 03:31:55;;;;;;;12.82;5.70;;;8.00;99.90;;;;;;5079321;28;20039;-78
2022/04/21 03:34:21;;;;;;;6.53;4.82;;;8.00;99.90;;;;;;5063862;28;20117;-78
2022/04/21 03:36:48;;;;;;;8.30;5.63;;;8.00;99.90;;;;;;5081748;28;20042;-77
2022/04/21 03:39:15;;;;;;;14.30;5.78;;;8.00;99.90;;;;;;5081583;28;20039;-77
2022/04/21 03:41:41;;;;;;;5.53;5.03;;;8.00;99.90;;;;;;5047470;28;20044;-78
2022/04/21 03:44:07;;;;;;;11.70;6.55;;;8.00;99.90;;;;;;5081529;28;20047;-77
2022/04/21 03:46:32;;;;;;;6.05;5.43;;;7.90;99.90;;;;;;5081346;28;20032;-79
2022/04/21 03:48:58;;;;;;;7.68;5.10;;;7.90;99.90;;;;;;5062529;28;20067;-78
2022/04/21 03:51:25;;;;;;;8.05;6.03;;;7.90;99.90;;;;;;5081527;28;20193;-79
2022/04/21 03:53:51;;;;;;;6.35;5.70;;;7.90;99.90;;;;;;5081563;28;20120;-77
2022/04/21 03:56:17;;;;;;;4.60;4.20;;;7.90;99.90;;;;;;5081024;28;20115;-78
2022/04/21 03:58:42;;;;;;;4.93;4.53;;;7.90;99.90;;;;;;5080656;28;20044;-78
2022/04/21 04:01:08;;;;;;;3.72;3.42;;;7.90;99.90;;;;;;5063303;28;20093;-78
2022/04/21 04:03:34;;;;;;;7.45;6.07;;;7.90;99.90;;;;;;5080002;28;20048;-78
2022/04/21 04:05:59;;;;;;;4.10;3.72;;;7.90;99.90;;;;;;5081912;28;20050;-78
2022/04/21 04:11:10;;;;;;;4.97;4.50;;;7.90;99.90;;;;;;5081459;28;20055;-78
2022/04/21 04:13:36;;;;;;;6.13;4.63;;;7.80;99.90;;;;;;5066347;28;20615;-77
2022/04/21 04:16:01;;;;;;;5.20;4.68;;;7.80;99.90;;;;;;5085091;28;20054;-79
2022/04/21 04:18:28;;;;;;;10.25;5.30;;;7.80;99.90;;;;;;5084985;28;20386;-78
2022/04/21 04:20:54;;;;;;;5.05;4.55;;;7.80;99.90;;;;;;5085323;28;20039;-78
2022/04/21 04:23:21;;;;;;;5.18;4.57;;;7.80;99.90;;;;;;5085618;28;20101;-78
2022/04/21 04:25:47;;;;;;;4.18;3.78;;;7.80;99.90;;;;;;5067105;28;20071;-78
2022/04/21 04:28:13;;;;;;;5.60;4.68;;;7.80;99.90;;;;;;5085218;28;20068;-78
2022/04/21 04:30:39;;;;;;;4.07;3.67;;;7.70;99.90;;;;;;5085409;28;20486;-78
2022/04/21 04:33:05;;;;;;;8.35;5.35;;;7.70;99.90;;;;;;5065804;28;20075;-78
2022/04/21 04:35:31;;;;;;;9.35;5.63;;;7.70;99.90;;;;;;5085331;28;20118;-78
2022/04/21 04:37:58;;;;;;;12.30;4.50;;;7.70;99.90;;;;;;5085577;28;20467;-77
2022/04/21 04:40:24;;;;;;;7.18;4.47;;;7.70;99.90;;;;;;5084572;28;20039;-77
2022/04/21 04:42:52;;;;;;;9.73;4.85;;;7.70;99.90;;;;;;5085070;28;20048;-77
2022/04/21 04:48:01;;;;;;;5.43;4.07;;;7.70;99.90;;;;;;5083160;28;20718;-78
2022/04/21 04:50:27;;;;;;;5.45;4.95;;;7.70;99.90;;;;;;5085282;28;20047;-77
2022/04/21 04:52:57;;;;;;;3.70;3.40;;;7.70;99.90;;;;;;5066544;28;20052;-77
2022/04/21 04:55:23;;;;;;;9.45;5.03;;;7.70;99.90;;;;;;5084756;28;20054;-77
2022/04/21 04:57:50;;;;;;;10.70;4.88;;;7.70;99.90;;;;;;5083561;28;20032;-78
2022/04/21 05:00:15;;;;;;;6.65;5.18;;;7.70;99.90;;;;;;5082866;28;20040;-80
2022/04/21 05:02:41;;;;;;;8.05;4.53;;;7.70;99.90;;;;;;5083493;28;20063;-77
2022/04/21 05:05:08;;;;;;;4.32;3.90;;;7.70;99.90;;;;;;5084177;28;20131;-79
2022/04/21 05:07:35;;;;;;;5.72;4.10;;;7.70;99.90;;;;;;5065579;28;20040;-79
2022/04/21 05:10:00;;;;;;;6.10;5.25;;;7.70;99.90;;;;;;5066406;28;20055;-75
2022/04/21 05:12:26;;;;;;;7.88;4.85;;;7.70;99.90;;;;;;5083300;28;20044;-79
2022/04/21 05:14:52;;;;;;;6.80;5.13;;;7.70;99.90;;;;;;5066667;28;20036;-80
2022/04/21 05:17:18;;;;;;;6.80;5.32;;;7.70;99.90;;;;;;5081176;28;20085;-80
2022/04/21 05:19:44;;;;;;;6.50;5.00;;;7.70;99.90;;;;;;5065907;28;20060;-79
2022/04/21 05:22:12;;;;;;;5.93;4.50;;;7.70;99.90;;;;;;5083755;28;20602;-79
2022/04/21 05:24:39;;;;;;;5.97;5.03;;;7.70;99.90;;;;;;5083423;28;20047;-79
2022/04/21 05:27:05;;;;;;;8.80;3.47;;;7.70;99.90;;;;;;5047005;28;20047;-79
2022/04/21 05:32:18;;;;;;;5.88;4.22;;;7.70;99.90;;;;;;5063117;28;20503;-79
2022/04/21 05:34:45;;;;;;;7.97;4.38;;;7.70;99.90;;;;;;5081804;28;20051;-79
2022/04/21 05:37:11;;;;;;;4.68;3.95;;;7.70;99.90;;;;;;5084156;28;20121;-79
2022/04/21 05:39:37;;;;;;;5.25;4.28;;;7.70;99.90;;;;;;5078579;28;21567;-84
2022/04/21 05:42:05;;;;;;;4.65;3.85;;;7.70;99.90;;;;;;5039823;28;20108;-85
2022/04/21 05:44:31;;;;;;;6.68;4.72;;;7.80;99.90;;;;;;5079111;28;20052;-79
2022/04/21 05:46:57;;;;;;;4.40;4.00;;;7.80;99.90;;;;;;5077336;28;20032;-77
2022/04/21 05:49:24;;;;;;;6.75;4.30;;;7.80;99.90;;;;;;5050461;28;20044;-77
2022/04/21 05:51:52;;;;;;;7.00;3.67;;;7.80;99.90;;;;;;5083984;28;20039;-78
2022/04/21 05:54:17;;;;;;;5.00;3.55;;;7.80;99.90;;;;;;5082903;28;20051;-77
2022/04/21 05:56:43;;;;;;;4.32;3.97;;;7.80;99.90;;;;;;5083279;28;20040;-77
2022/04/21 05:59:10;;;;;;;6.47;5.47;;;7.80;99.90;;;;;;5083192;28;20032;-78
2022/04/21 06:01:36;;;;;;;13.73;5.65;;;7.90;99.90;;;;;;5064172;28;20154;-77
2022/04/21 06:04:02;;;;;;;5.43;4.88;;;7.90;99.90;;;;;;5082150;28;20110;-76
2022/04/21 06:06:27;;;;;;;5.03;4.47;;;7.90;99.90;;;;;;5083190;28;20587;-79
2022/04/21 06:08:53;;;;;;;5.70;3.85;;;7.90;99.90;;;;;;5065090;28;20048;-78
2022/04/21 06:11:19;;;;;;;6.57;4.50;;;7.90;99.90;;;;;;5082863;28;20509;-77
2022/04/21 06:13:44;;;;;;;4.80;4.32;;;8.00;99.90;;;;;;5073175;28;20158;-78
2022/04/21 06:16:10;;;;;;;8.93;4.07;;;8.00;99.90;;;;;;5080638;28;20116;-76
2022/04/21 06:18:36;;;;;;;7.47;6.05;;;8.00;99.90;;;;;;5068563;28;20036;-77
2022/04/21 06:21:03;;;;;;;4.80;4.40;;;8.10;99.90;;;;;;5079483;28;20331;-76
2022/04/21 06:23:30;;;;;;;4.45;3.05;;;8.10;99.90;;;;;;5080514;28;20148;-78
2022/04/21 06:25:59;;;;;;;4.47;3.80;;;8.10;99.90;;;;;;5070828;28;20044;-79
2022/04/21 06:28:29;;;;;;;2.83;2.63;;;8.20;99.90;;;;;;5049160;28;20043;-79
2022/04/21 06:30:54;;;;;;;5.00;4.53;;;8.20;99.90;;;;;;5076653;28;20056;-77
2022/04/21 06:33:21;;;;;;;4.05;3.65;;;8.20;99.90;;;;;;5070405;28;20607;-78
2022/04/21 06:35:47;;;;;;;7.03;3.60;;;8.30;99.90;;;;;;5070455;28;20044;-78
2022/04/21 06:38:13;;;;;;;15.63;4.72;;;8.30;99.90;;;;;;5081605;28;20036;-77
2022/04/21 06:40:39;;;;;;;3.90;3.35;;;8.30;99.90;;;;;;5066384;28;20044;-77
2022/04/21 06:48:36;;;;;;;4.30;3.75;;;8.50;99.90;;;;;;5064077;28;20170;-77
2022/04/21 06:51:02;;;;;;;4.47;4.07;;;8.50;99.90;;;;;;5062382;28;20127;-77
2022/04/21 06:53:29;;;;;;;5.93;4.03;;;8.50;99.90;;;;;;5082260;28;20036;-76
2022/04/21 06:55:55;;;;;;;4.93;4.07;;;8.60;99.90;;;;;;5082332;28;20071;-78
2022/04/21 06:58:21;;;;;;;3.20;2.90;;;8.60;99.90;;;;;;5081615;28;20094;-77
2022/04/21 07:00:47;;;;;;;3.20;2.05;;;8.60;99.90;;;;;;5062684;28;20135;-77
2022/04/21 07:03:13;;;;;;;3.33;3.03;;;8.60;99.90;;;;;;5079934;28;20240;-77
2022/04/21 07:05:38;;;;;;;6.28;4.05;;;8.70;99.90;;;;;;5081182;28;20100;-77
2022/04/21 07:08:04;;;;;;;4.95;3.03;;;8.70;99.90;;;;;;5046626;28;20042;-78
2022/04/21 07:10:30;;;;;;;7.70;3.08;;;8.80;99.90;;;;;;5059162;28;20040;-76
2022/04/21 07:12:55;;;;;;;2.78;2.47;;;8.90;99.90;;;;;;5063255;28;20567;-76
2022/04/21 07:15:21;;;;;;;6.85;3.65;;;8.90;99.90;;;;;;5081089;28;20055;-78
2022/04/21 07:17:47;;;;;;;3.53;3.22;;;9.00;99.90;;;;;;5079628;28;20044;-79
2022/04/21 07:20:16;;;;;;;3.83;3.05;;;9.00;99.90;;;;;;5067759;28;20071;-77
2022/04/21 07:22:41;;;;;;;4.05;3.45;;;9.10;99.90;;;;;;5080124;28;20047;-77
2022/04/21 07:25:09;;;;;;;2.95;2.65;;;9.10;99.90;;;;;;5067555;28;20032;-77
2022/04/21 07:27:36;;;;;;;3.28;2.60;;;9.20;99.90;;;;;;5080407;28;20040;-76
2022/04/21 07:30:02;;;;;;;4.13;3.05;;;9.20;99.90;;;;;;5070408;28;20048;-78
2022/04/21 07:32:28;;;;;;;4.38;3.50;;;9.20;99.90;;;;;;5079311;28;20437;-79
2022/04/21 07:34:54;;;;;;;7.85;3.10;;;9.30;99.90;;;;;;5082055;28;20044;-77
2022/04/21 07:37:20;;;;;;;11.48;3.55;;;9.40;99.90;;;;;;5058799;28;20040;-78
2022/04/21 07:39:45;;;;;;;5.38;3.03;;;9.40;99.90;;;;;;5074947;28;20269;-77
2022/04/21 07:42:11;;;;;;;11.30;3.85;;;9.40;99.90;;;;;;5081377;28;20517;-78
2022/04/21 07:44:37;;;;;;;6.00;2.75;;;9.40;99.90;;;;;;5062968;28;20078;-78
2022/04/21 07:47:07;;;;;;;4.30;2.53;;;9.50;99.90;;;;;;5070568;28;20039;-78
2022/04/21 07:49:45;;;;;;;6.10;4.13;;;9.50;99.90;;;;;;5056431;28;20046;-78
2022/04/21 07:55:22;;;;;;;8.38;2.90;;;9.60;99.90;;;;;;5078048;28;20431;-79
2022/04/21 07:57:48;;;;;;;6.18;3.40;;;9.70;99.90;;;;;;5080468;28;20097;-76
2022/04/21 08:00:16;;;;;;;4.38;2.83;;;9.70;99.90;;;;;;5080623;28;20036;-75
2022/04/21 08:02:44;;;;;;;3.78;2.42;;;9.80;99.90;;;;;;5058855;28;20048;-78
2022/04/21 08:05:12;;;;;;;3.03;2.72;;;9.80;99.90;;;;;;5080977;28;20047;-78
2022/04/21 08:07:38;;;;;;;2.75;2.55;;;9.80;99.90;;;;;;5062609;28;20050;-78
2022/04/21 08:10:06;;;;;;;10.00;3.60;;;9.90;99.90;;;;;;5059949;28;20135;-78
2022/04/21 08:12:41;;;;;;;4.05;3.17;;;9.90;99.90;;;;;;5062788;28;20070;-78
2022/04/21 08:15:20;;;;;;;4.10;3.03;;;10.00;99.90;;;;;;5073928;28;20545;-78
2022/04/21 08:17:46;;;;;;;2.00;1.80;;;10.00;99.90;;;;;;5077694;28;20106;-77
2022/04/21 08:20:12;;;;;;;4.32;1.80;;;10.10;99.90;;;;;;5061959;28;20044;-78
2022/04/21 08:22:38;;;;;;;10.57;3.33;;;10.10;99.90;;;;;;5069965;28;20777;-77
2022/04/21 08:33:18;;;;;;;2.83;1.90;;;10.40;99.90;;;;;;5079993;28;20044;-77
2022/04/21 08:35:45;;;;;;;1.90;1.80;;;10.40;99.90;;;;;;5077215;28;20055;-78
2022/04/21 08:38:11;;;;;;;2.40;1.58;;;10.50;99.90;;;;;;5062190;28;20042;-78
2022/04/21 08:40:37;;;;;;;1.67;1.48;;;10.50;99.90;;;;;;5057912;28;20605;-79
2022/04/21 08:43:22;;;;;;;2.75;2.30;;;10.60;99.90;;;;;;5078788;28;20032;-78
2022/04/21 08:45:49;;;;;;;1.65;1.55;;;10.70;99.90;;;;;;5064140;28;20040;-76
2022/04/21 08:48:18;;;;;;;2.67;2.47;;;10.70;99.90;;;;;;5071304;28;20044;-79
2022/04/21 08:50:44;;;;;;;3.00;2.13;;;10.70;99.90;;;;;;5079502;28;20040;-77
2022/04/21 08:53:11;;;;;;;3.20;2.15;;;10.80;99.90;;;;;;5079463;28;20048;-78
2022/04/21 08:55:37;;;;;;;3.83;2.15;;;10.80;99.90;;;;;;5054384;28;20494;-79
2022/04/21 08:58:06;;;;;;;2.42;1.33;;;10.90;99.90;;;;;;5063335;28;20032;-79
2022/04/21 09:00:32;;;;;;;3.00;1.90;;;11.00;99.90;;;;;;5084694;28;20532;-81
2022/04/21 09:02:59;;;;;;;5.10;2.25;;;11.00;99.90;;;;;;5065867;28;20106;-81
2022/04/21 09:05:29;;;;;;;1.98;1.27;;;11.00;99.90;;;;;;5066273;28;20123;-80
2022/04/21 09:07:57;;;;;;;3.63;2.35;;;11.00;99.90;;;;;;5059714;28;20037;-79
2022/04/21 09:10:24;;;;;;;1.45;1.33;;;11.10;99.90;;;;;;5072893;28;20087;-81
2022/04/21 09:12:55;;;;;;;1.40;1.30;;;11.10;99.90;;;;;;5083451;28;20384;-85
2022/04/21 09:15:25;;;;;;;1.13;1.13;;;11.10;99.90;;;;;;5065557;28;20060;-82
2022/04/21 09:17:59;;;;;;;1.98;1.88;;;11.20;99.90;;;;;;5082972;28;20326;-80
2022/04/21 09:20:29;;;;;;;1.20;0.98;;;11.20;99.90;;;;;;5049678;28;20402;-84
2022/04/21 09:22:59;;;;;;;2.03;1.65;;;11.30;99.90;;;;;;5065604;28;20526;-84
2022/04/21 09:25:31;;;;;;;1.23;1.23;;;11.40;99.90;;;;;;5065881;28;20044;-85
2022/04/21 09:27:57;;;;;;;1.58;1.48;;;11.40;99.90;;;;;;5083971;28;20044;-85
2022/04/21 09:30:23;;;;;;;3.67;2.28;;;11.50;99.90;;;;;;5072797;28;20132;-79
2022/04/21 09:32:58;;;;;;;2.47;1.75;;;11.50;99.90;;;;;;5082172;28;20077;-81
2022/04/21 09:35:29;;;;;;;1.35;1.25;;;11.60;99.90;;;;;;5065551;28;20039;-84
2022/04/21 09:37:56;;;;;;;2.05;1.83;;;11.60;99.90;;;;;;5077416;28;20071;-83
2022/04/21 09:40:27;;;;;;;2.78;1.63;;;11.70;99.90;;;;;;5046522;28;20565;-82
2022/04/21 09:42:56;;;;;;;3.55;2.25;;;11.70;99.90;;;;;;5058914;28;20123;-80
2022/04/21 09:48:29;;;;;;;2.63;1.50;;;11.80;99.90;;;;;;5069696;28;20052;-80
2022/04/21 09:51:12;;;;;;;6.30;1.23;;;11.90;99.90;;;;;;5077647;28;20047;-82
2022/04/21 09:53:59;;;;;;;4.80;2.10;;;11.90;99.90;;;;;;5083335;28;20046;-75
2022/04/21 09:56:36;;;;;;;3.72;1.90;;;11.90;99.90;;;;;;5085427;28;20521;-76
2022/04/21 09:59:08;;;;;;;3.50;2.17;;;12.00;99.90;;;;;;5084388;28;20035;-76
2022/04/21 10:01:37;;;;;;;2.17;1.90;;;12.00;99.90;;;;;;5101954;28;20039;-75
2022/04/21 10:04:08;;;;;;;3.55;2.05;;;12.10;99.90;;;;;;5102859;28;20089;-75
2022/04/21 10:06:41;;;;;;;4.90;2.15;;;12.10;99.90;;;;;;5103575;28;20120;-78
2022/04/21 10:09:08;;;;;;;1.63;1.52;;;12.10;99.90;;;;;;5072563;28;20055;-79
2022/04/21 10:11:36;;;;;;;3.15;2.00;;;12.20;99.90;;;;;;5080163;28;20120;-76
2022/04/21 10:14:04;;;;;;;2.75;2.38;;;12.30;99.90;;;;;;5071928;28;20055;-78
2022/04/21 10:16:29;;;;;;;3.35;1.88;;;12.30;99.90;;;;;;5070858;28;20047;-80
2022/04/21 10:18:57;;;;;;;3.90;2.17;;;12.30;99.90;;;;;;5078798;28;20510;-78
2022/04/21 10:21:34;;;;;;;1.65;1.50;;;12.30;99.90;;;;;;5050554;28;20067;-77
2022/04/21 10:24:00;;;;;;;3.15;1.90;;;12.30;99.90;;;;;;5066705;28;20100;-80
2022/04/21 10:26:41;;;;;;;10.13;1.95;;;12.30;99.90;;;;;;5072139;28;20068;-77
2022/04/21 10:29:17;;;;;;;1.75;1.65;;;12.40;99.90;;;;;;5071563;28;20394;-77
2022/04/21 10:31:55;;;;;;;1.67;1.58;;;12.50;99.90;;;;;;5080539;28;20114;-77
2022/04/21 10:34:31;;;;;;;1.95;1.80;;;12.50;99.90;;;;;;5071618;28;20076;-77
2022/04/21 10:37:09;;;;;;;1.50;1.40;;;12.50;99.90;;;;;;5068251;28;20082;-80
2022/04/21 10:39:35;;;;;;;1.50;1.40;;;12.60;99.90;;;;;;5086860;28;20089;-76
2022/04/21 10:42:27;;;;;;;1.85;1.75;;;12.60;99.90;;;;;;5080643;28;20114;-77
2022/04/21 10:44:55;;;;;;;1.70;1.58;;;12.70;99.90;;;;;;5060965;28;20052;-77
2022/04/21 10:47:33;;;;;;;1.77;1.35;;;12.70;99.90;;;;;;5064221;28;20127;-78
2022/04/21 10:50:19;;;;;;;1.42;1.30;;;12.80;99.90;;;;;;5066474;28;20066;-79
2022/04/21 10:58:34;;;;;;;6.18;2.40;;;12.80;99.90;;;;;;5081808;28;20036;-79
2022/04/21 11:01:17;;;;;;;1.85;1.75;;;12.80;99.90;;;;;;5062928;28;20331;-77
2022/04/21 11:03:44;;;;;;;3.72;1.67;;;12.90;99.90;;;;;;5062917;28;20557;-78
2022/04/21 11:06:12;;;;;;;8.98;1.60;;;12.90;99.90;;;;;;5058834;28;20039;-80
2022/04/21 11:08:38;;;;;;;3.78;2.05;;;13.00;99.90;;;;;;5057724;28;20131;-78
2022/04/21 11:11:05;;;;;;;1.83;1.63;;;13.00;99.90;;;;;;5065890;28;20118;-78
2022/04/21 11:13:52;;;;;;;2.10;1.20;;;13.10;99.90;;;;;;5076682;28;20036;-73
2022/04/21 11:16:47;;;;;;;2.10;1.90;;;13.10;99.90;;;;;;5067389;28;20478;-78
2022/04/21 11:19:34;;;;;;;2.35;2.15;;;13.20;99.90;;;;;;5067121;28;20114;-76
2022/04/21 11:22:05;;;;;;;2.28;2.03;;;13.20;99.90;;;;;;5069273;28;20052;-78
2022/04/21 11:25:01;;;;;;;2.28;1.92;;;13.20;99.90;;;;;;5066193;28;20036;-79
2022/04/21 11:27:26;;;;;;;1.92;1.75;;;13.20;99.90;;;;;;5056691;28;20498;-79
2022/04/21 11:29:59;;;;;;;2.25;2.05;;;13.20;99.90;;;;;;5064879;28;20043;-79
2022/04/21 11:32:24;;;;;;;1.95;1.85;;;13.30;99.90;;;;;;5060581;28;20036;-78
2022/04/21 11:35:10;;;;;;;2.17;1.98;;;13.30;99.90;;;;;;5080138;28;20362;-78
2022/04/21 11:37:55;;;;;;;4.38;2.13;;;13.30;99.90;;;;;;5067029;28;20048;-78
2022/04/21 11:40:29;;;;;;;9.25;2.10;;;13.40;99.90;;;;;;5079063;28;20039;-78
2022/04/21 11:42:57;;;;;;;2.70;2.45;;;13.40;99.90;;;;;;5081724;28;20115;-78
2022/04/21 11:45:25;;;;;;;2.13;1.92;;;13.40;99.90;;;;;;5045233;28;20044;-78
2022/04/21 11:47:51;;;;;;;1.98;1.58;;;13.40;99.90;;;;;;5080272;28;20066;-79
2022/04/21 11:50:19;;;;;;;2.80;1.85;;;13.40;99.90;;;;;;5076175;28;20052;-78
2022/04/21 11:52:46;;;;;;;2.28;1.77;;;13.40;99.90;;;;;;5054023;28;20086;-79
2022/04/21 11:55:15;;;;;;;1.88;1.77;;;13.50;99.90;;;;;;5080416;28;20119;-78
2022/04/21 11:57:41;;;;;;;4.18;1.48;;;13.40;99.90;;;;;;5081482;28;20076;-78
2022/04/21 12:00:08;;;;;;;1.48;1.02;;;13.50;99.90;;;;;;5063279;28;20043;-79
2022/04/21 12:08:10;;;;;;;1.70;1.60;;;13.50;99.90;;;;;;5048843;28;20096;-78
2022/04/21 12:10:37;;;;;;;4.20;1.98;;;13.60;99.90;;;;;;5081506;28;20040;-76
2022/04/21 12:13:03;;;;;;;2.20;1.65;;;13.50;99.90;;;;;;5063176;28;20044;-77
2022/04/21 12:15:30;;;;;;;6.75;1.38;;;13.50;99.90;;;;;;5062413;28;20079;-77
2022/04/21 12:17:59;;;;;;;3.22;2.22;;;13.50;99.90;;;;;;5047024;28;20603;-84
2022/04/21 12:20:26;;;;;;;3.83;2.17;;;13.50;99.90;;;;;;5037298;28;20154;-78
2022/04/21 12:22:52;;;;;;;2.33;1.95;;;13.50;99.90;;;;;;5046530;28;20040;-80
2022/04/21 12:25:17;;;;;;;3.75;2.22;;;13.60;99.90;;;;;;5045230;28;20059;-79
2022/04/21 12:27:44;;;;;;;1.23;1.13;;;13.60;99.90;;;;;;5070644;28;20115;-79
2022/04/21 12:30:11;;;;;;;4.40;1.42;;;13.60;99.90;;;;;;5080849;28;20811;-79
2022/04/21 12:32:46;;;;;;;1.63;1.33;;;13.60;99.90;;;;;;5063019;28;20044;-79
2022/04/21 12:35:13;;;;;;;2.25;1.88;;;13.60;99.90;;;;;;5085115;28;20044;-79
2022/04/21 12:38:50;;;;;;;1.90;1.73;;;13.70;99.90;;;;;;5066996;28;20044;-79
2022/04/21 12:40:41;;;;;;;2.88;1.15;;;13.70;99.90;;;;;;5074940;28;20070;-80
2022/04/21 12:43:07;;;;;;;2.30;1.90;;;13.70;99.90;;;;;;5083303;28;20717;-81
2022/04/21 12:45:32;;;;;;;1.98;1.77;;;13.70;99.90;;;;;;5083698;28;20036;-81
2022/04/21 12:47:58;;;;;;;7.97;2.30;;;13.60;99.90;;;;;;5074102;28;20134;-82
2022/04/21 12:50:25;;;;;;;2.00;1.50;;;13.70;99.90;;;;;;5083718;28;20445;-81
2022/04/21 12:52:55;;;;;;;1.67;1.58;;;13.70;99.90;;;;;;5083970;28;20396;-81
2022/04/21 12:55:21;;;;;;;2.75;2.42;;;13.70;99.90;;;;;;5074092;28;20052;-81
2022/04/21 12:58:05;;;;;;;1.75;1.65;;;13.70;99.90;;;;;;5065959;28;20107;-80
2022/04/21 13:00:32;;;;;;;2.55;1.85;;;13.70;99.90;;;;;;5074523;28;20089;-80
2022/04/21 13:02:59;;;;;;;3.03;1.58;;;13.70;99.90;;;;;;5081500;28;20044;-80
2022/04/21 13:05:25;;;;;;;3.22;1.55;;;13.60;99.90;;;;;;5074009;28;20128;-81
2022/04/21 13:07:51;;;;;;;3.03;1.98;;;13.60;99.90;;;;;;5072953;28;20603;-81
2022/04/21 13:10:17;;;;;;;5.68;1.98;;;13.70;99.90;;;;;;5054280;28;20096;-81
2022/04/21 13:12:43;;;;;;;4.05;2.25;;;13.70;99.90;;;;;;5055309;28;20155;-85
2022/04/21 13:15:09;;;;;;;3.78;2.40;;;13.80;99.90;;;;;;5073649;28;20170;-84
2022/04/21 13:17:34;;;;;;;2.90;1.90;;;13.80;99.90;;;;;;5056356;28;20036;-86
2022/04/21 13:20:01;;;;;;;1.98;1.50;;;13.70;99.90;;;;;;5071870;28;20040;-82
2022/04/21 13:22:27;;;;;;;2.53;1.77;;;13.70;99.90;;;;;;5075041;28;20047;-83
2022/04/21 13:24:52;;;;;;;3.42;1.30;;;13.70;99.90;;;;;;5055174;28;20048;-86
2022/04/21 13:27:21;;;;;;;3.67;1.45;;;13.70;99.90;;;;;;5065924;28;20112;-84
2022/04/21 13:29:47;;;;;;;1.77;1.67;;;13.60;99.90;;;;;;5083052;28;20059;-80
2022/04/21 13:34:57;;;;;;;2.20;2.00;;;13.70;99.90;;;;;;5066252;28;20519;-82
2022/04/21 13:37:23;;;;;;;1.58;1.40;;;13.70;99.90;;;;;;5082212;28;20090;-84
2022/04/21 13:39:49;;;;;;;1.38;1.27;;;13.70;99.90;;;;;;5065702;28;20123;-85
2022/04/21 13:42:15;;;;;;;1.77;1.45;;;13.70;99.90;;;;;;5069611;28;20039;-89
2022/04/21 13:44:41;;;;;;;5.75;1.50;;;13.70;99.90;;;;;;5074291;28;20097;-93
2022/04/21 13:47:07;;;;;;;1.48;1.10;;;13.70;99.90;;;;;;5064669;28;20063;-88
2022/04/21 13:49:33;;;;;;;1.48;1.38;;;13.80;99.90;;;;;;5071362;28;20384;-93
2022/04/21 13:51:59;;;;;;;2.90;1.60;;;13.80;99.90;;;;;;5084561;28;20036;-84